createdAt,value
2023-03-31T00:02:41.450Z,1.42
2023-03-31T00:07:43.940Z,1.50
2023-03-31T00:12:45.970Z,1.88
2023-03-31T00:17:47.749Z,1.42
2023-03-31T00:22:49.359Z,1.35
2023-03-31T00:27:52.721Z,1.40
2023-03-31T00:32:54.393Z,1.40
2023-03-31T00:37:57.920Z,1.40
2023-03-31T00:42:59.596Z,1.75
2023-03-31T00:48:10.448Z,1.73
2023-03-31T00:53:15.957Z,2.05
2023-03-31T00:58:20.293Z,1.85
2023-03-31T01:03:25.222Z,1.80
2023-03-31T01:08:27.690Z,1.95
2023-03-31T01:13:30.413Z,2.15
2023-03-31T01:18:34.987Z,2.10
2023-03-31T01:23:42.018Z,2.20
2023-03-31T01:29:02.839Z,1.80
2023-03-31T01:34:11.796Z,1.60
2023-03-31T01:39:50.341Z,1.75
2023-03-31T01:45:12.250Z,1.45
2023-03-31T01:50:46.711Z,1.85
2023-03-31T01:56:14.296Z,1.70
2023-03-31T02:01:21.115Z,1.50
2023-03-31T02:06:27.183Z,1.55
2023-03-31T02:11:30.195Z,1.65
2023-03-31T02:16:33.515Z,1.60
2023-03-31T02:21:38.714Z,1.55
2023-03-31T02:26:46.451Z,1.63
2023-03-31T02:31:55.178Z,1.55
2023-03-31T02:36:56.874Z,1.60
2023-03-31T02:41:58.660Z,1.70
2023-03-31T02:47:00.781Z,1.50
2023-03-31T02:52:08.364Z,1.60
2023-03-31T02:57:19.365Z,1.90
2023-03-31T03:02:36.955Z,1.60
2023-03-31T03:07:56.316Z,1.70
2023-03-31T03:13:18.271Z,1.30
2023-03-31T03:18:19.870Z,1.50
2023-03-31T03:23:22.659Z,1.40
2023-03-31T03:28:24.598Z,1.25
2023-03-31T03:33:26.231Z,1.13
2023-03-31T03:38:27.871Z,1.67
2023-03-31T03:43:29.473Z,1.60
2023-03-31T03:48:31.064Z,1.58
2023-03-31T03:53:32.796Z,1.45
2023-03-31T03:58:34.529Z,1.67
2023-03-31T04:03:36.151Z,1.52
2023-03-31T04:08:37.761Z,1.80
2023-03-31T04:13:39.337Z,1.38
2023-03-31T04:18:43.627Z,1.50
2023-03-31T04:23:47.878Z,1.67
2023-03-31T04:28:50.717Z,1.77
2023-03-31T04:33:53.441Z,1.70
2023-03-31T04:38:55.135Z,1.80
2023-03-31T04:43:56.813Z,1.88
2023-03-31T04:48:59.249Z,1.50
2023-03-31T04:54:00.922Z,1.70
2023-03-31T04:59:03.965Z,2.00
2023-03-31T05:04:05.986Z,1.95
2023-03-31T05:09:09.620Z,1.90
2023-03-31T05:14:11.272Z,1.48
2023-03-31T05:19:12.878Z,1.80
2023-03-31T05:24:14.845Z,1.70
2023-03-31T05:29:16.796Z,1.85
2023-03-31T05:34:18.436Z,2.20
2023-03-31T05:39:20.088Z,2.30
2023-03-31T05:44:21.697Z,1.92
2023-03-31T05:49:23.283Z,1.88
2023-03-31T05:54:24.964Z,2.33
2023-03-31T05:59:26.732Z,1.50
2023-03-31T06:04:28.588Z,1.50
2023-03-31T06:09:30.420Z,1.98
2023-03-31T06:14:32.009Z,1.73
2023-03-31T06:19:33.626Z,1.60
2023-03-31T06:24:35.385Z,1.63
2023-03-31T06:29:37.000Z,1.50
2023-03-31T06:34:38.654Z,1.80
2023-03-31T06:39:40.407Z,1.63
2023-03-31T06:44:42.014Z,1.20
2023-03-31T06:49:43.642Z,1.70
2023-03-31T06:54:45.671Z,1.50
2023-03-31T06:59:47.438Z,1.58
2023-03-31T07:04:49.004Z,1.48
2023-03-31T07:09:50.618Z,1.70
2023-03-31T07:14:52.235Z,1.33
2023-03-31T07:19:53.874Z,1.63
2023-03-31T07:24:55.561Z,1.65
2023-03-31T07:29:57.198Z,1.63
2023-03-31T07:34:59.245Z,1.58
2023-03-31T07:40:00.917Z,1.70
2023-03-31T07:45:06.230Z,1.98
2023-03-31T07:50:08.448Z,1.63
2023-03-31T07:55:10.510Z,1.70
2023-03-31T08:00:12.832Z,1.58
2023-03-31T08:05:16.389Z,1.95
2023-03-31T08:10:24.935Z,2.00
2023-03-31T08:15:26.629Z,1.60
2023-03-31T08:20:28.240Z,1.92
2023-03-31T08:25:29.835Z,1.73
2023-03-31T08:30:31.413Z,2.03
2023-03-31T08:35:33.334Z,2.05
2023-03-31T08:40:34.997Z,1.85
2023-03-31T08:45:40.243Z,1.98
2023-03-31T08:50:47.780Z,2.13
2023-03-31T08:55:51.244Z,2.40
2023-03-31T09:01:14.165Z,1.95
2023-03-31T09:06:21.144Z,2.13
2023-03-31T09:11:36.334Z,2.15
2023-03-31T09:16:56.222Z,1.80
2023-03-31T09:22:00.429Z,1.58
2023-03-31T09:27:12.255Z,1.20
2023-03-31T09:32:18.033Z,1.45
2023-03-31T09:37:19.802Z,1.73
2023-03-31T09:42:21.422Z,1.50
2023-03-31T09:47:32.704Z,1.50
2023-03-31T09:52:53.390Z,1.42
2023-03-31T09:57:54.976Z,1.42
2023-03-31T10:02:57.781Z,1.10
2023-03-31T10:08:14.407Z,1.48
2023-03-31T10:13:48.251Z,1.38
2023-03-31T10:18:49.979Z,1.40
2023-03-31T10:23:52.561Z,1.35
2023-03-31T10:28:55.370Z,1.50
2023-03-31T10:33:58.403Z,1.48
2023-03-31T10:39:00.147Z,1.40
2023-03-31T10:44:04.086Z,1.50
2023-03-31T10:49:24.382Z,1.50
2023-03-31T10:54:26.769Z,1.45
2023-03-31T10:59:51.817Z,1.70
2023-03-31T11:04:59.082Z,1.45
2023-03-31T11:10:28.058Z,1.60
2023-03-31T11:15:43.021Z,1.50
2023-03-31T11:21:04.022Z,1.88
2023-03-31T11:26:26.010Z,1.83
2023-03-31T11:31:34.018Z,1.73
2023-03-31T11:36:50.566Z,1.95
2023-03-31T11:42:01.415Z,1.92
2023-03-31T11:47:13.652Z,2.20
2023-03-31T11:52:17.258Z,2.20
2023-03-31T11:57:40.632Z,1.65
2023-03-31T12:03:19.829Z,1.92
2023-03-31T12:08:41.928Z,1.58
2023-03-31T12:13:56.253Z,1.88
2023-03-31T12:19:03.173Z,1.95
2023-03-31T12:24:06.513Z,1.60
2023-03-31T12:29:21.090Z,1.80
2023-03-31T12:34:24.682Z,1.73
2023-03-31T12:39:47.370Z,1.85
2023-03-31T12:45:24.154Z,2.00
2023-03-31T12:50:28.640Z,2.20
2023-03-31T12:55:37.486Z,2.08
2023-03-31T13:00:59.175Z,2.05
2023-03-31T13:06:01.641Z,1.92
2023-03-31T13:11:03.296Z,1.77
2023-03-31T13:16:05.229Z,1.90
2023-03-31T13:21:08.340Z,1.88
2023-03-31T13:26:32.597Z,1.77
2023-03-31T13:32:00.430Z,1.90
2023-03-31T13:37:29.069Z,1.95
2023-03-31T13:42:33.361Z,1.80
2023-03-31T13:47:41.386Z,2.10
2023-03-31T13:52:45.886Z,2.10
2023-03-31T13:58:05.393Z,2.05
2023-03-31T14:03:41.544Z,1.75
2023-03-31T14:08:58.126Z,1.70
2023-03-31T14:14:06.716Z,1.35
2023-03-31T14:19:32.507Z,1.40
2023-03-31T14:24:41.272Z,1.30
2023-03-31T14:29:58.057Z,1.17
2023-03-31T14:34:59.852Z,1.20
2023-03-31T14:40:01.844Z,1.10
2023-03-31T14:45:06.197Z,1.00
2023-03-31T14:50:15.408Z,1.30
2023-03-31T14:55:18.710Z,1.00
2023-03-31T15:00:29.787Z,1.05
2023-03-31T15:05:33.389Z,0.98
2023-03-31T15:10:45.595Z,1.10
2023-03-31T15:15:47.251Z,1.13
2023-03-31T15:20:48.910Z,1.05
2023-03-31T15:26:08.132Z,1.05
2023-03-31T15:31:10.827Z,1.23
2023-03-31T15:36:12.903Z,1.30
2023-03-31T15:41:16.904Z,1.10
2023-03-31T15:46:40.738Z,1.20
2023-03-31T15:51:42.328Z,1.42
2023-03-31T15:56:45.601Z,1.33
2023-03-31T16:01:49.491Z,1.38
2023-03-31T16:06:57.977Z,1.55
2023-03-31T16:12:02.855Z,1.50
2023-03-31T16:17:09.044Z,1.27
2023-03-31T16:22:15.746Z,1.60
2023-03-31T16:27:18.416Z,1.50
2023-03-31T16:32:20.943Z,1.70
2023-03-31T16:37:23.145Z,1.63
2023-03-31T16:42:24.993Z,1.95
2023-03-31T16:47:35.258Z,1.73
2023-03-31T16:52:38.045Z,1.52
2023-03-31T16:57:39.643Z,1.60
2023-03-31T17:02:41.619Z,1.58
2023-03-31T17:07:43.369Z,1.52
2023-03-31T17:12:45.024Z,1.30
2023-03-31T17:17:47.737Z,1.52
2023-03-31T17:22:49.473Z,1.50
2023-03-31T17:27:51.103Z,1.20
2023-03-31T17:32:52.835Z,1.20
2023-03-31T17:37:55.247Z,1.35
2023-03-31T17:42:56.870Z,1.60
2023-03-31T17:47:59.258Z,1.48
2023-03-31T17:53:01.438Z,1.30
2023-03-31T17:58:03.436Z,1.60
2023-03-31T18:03:05.260Z,1.50
2023-03-31T18:08:07.256Z,1.73
2023-03-31T18:13:09.778Z,1.60
2023-03-31T18:18:11.560Z,1.80
2023-03-31T18:23:13.288Z,1.63
2023-03-31T18:28:16.320Z,1.58
2023-03-31T18:33:17.996Z,1.63
2023-03-31T18:38:19.818Z,1.80
2023-03-31T18:43:25.168Z,1.80
2023-03-31T18:48:27.099Z,2.00
2023-03-31T18:53:30.083Z,1.67
2023-03-31T18:58:31.829Z,2.08
2023-03-31T19:03:33.535Z,2.28
2023-03-31T19:08:35.271Z,2.10
2023-03-31T19:13:38.156Z,2.38
2023-03-31T19:18:39.850Z,2.30
2023-03-31T19:23:41.515Z,1.75
2023-03-31T19:28:43.168Z,1.55
2023-03-31T19:33:44.793Z,1.58
2023-03-31T19:38:46.520Z,1.48
2023-03-31T19:43:48.970Z,1.30
2023-03-31T19:48:51.207Z,1.20
2023-03-31T19:53:53.617Z,1.30
2023-03-31T19:58:55.395Z,1.65
2023-03-31T20:03:57.524Z,1.42
2023-03-31T20:09:00.773Z,1.33
2023-03-31T20:14:03.598Z,1.50
2023-03-31T20:19:06.323Z,1.33
2023-03-31T20:24:08.446Z,1.27
2023-03-31T20:29:10.661Z,1.55
2023-03-31T20:34:16.852Z,1.50
2023-03-31T20:39:19.904Z,1.02
2023-03-31T20:44:21.916Z,1.13
2023-03-31T20:49:23.567Z,1.30
2023-03-31T20:54:25.215Z,1.40
2023-03-31T20:59:27.131Z,1.35
2023-03-31T21:04:28.775Z,1.40
2023-03-31T21:09:31.027Z,0.98
2023-03-31T21:14:33.082Z,1.20
2023-03-31T21:19:34.698Z,1.27
2023-03-31T21:24:36.490Z,1.40
2023-03-31T21:29:38.180Z,1.30
2023-03-31T21:34:39.851Z,1.30
2023-03-31T21:39:41.426Z,1.30
2023-03-31T21:44:43.613Z,1.10
2023-03-31T21:49:45.304Z,1.20
2023-03-31T21:54:47.127Z,1.60
2023-03-31T21:59:48.741Z,1.20
2023-03-31T22:04:50.862Z,1.85
2023-03-31T22:09:52.609Z,1.30
2023-03-31T22:14:54.557Z,1.48
2023-03-31T22:19:56.933Z,1.40
2023-03-31T22:24:58.550Z,1.35
2023-03-31T22:30:00.590Z,1.30
2023-03-31T22:35:02.215Z,1.20
2023-03-31T22:40:04.726Z,1.00
2023-03-31T22:45:06.957Z,1.20
2023-03-31T22:50:09.955Z,1.05
2023-03-31T22:55:11.652Z,0.90
2023-03-31T23:00:13.869Z,1.20
2023-03-31T23:05:15.733Z,1.10
2023-03-31T23:10:17.501Z,1.27
2023-03-31T23:15:19.117Z,0.80
2023-03-31T23:20:21.358Z,1.00
2023-03-31T23:25:23.037Z,1.10
2023-03-31T23:30:25.081Z,1.10
2023-03-31T23:35:27.283Z,1.30
2023-03-31T23:40:28.880Z,0.85
2023-03-31T23:45:30.668Z,1.40
2023-03-31T23:50:33.896Z,1.25
2023-03-31T23:55:35.755Z,1.00
